DLH71F LICJ-EDDF
Flight info
| Callsign | DLH71F |
|---|---|
| Flight time | N/A |
| Altitude | 36000 |
| Route | GIANO DCT RUVIP DCT VALMA DCT ROSKI DCT GAPMI DCT IBNAN DCT ABREG Y170 ARGAX DCT SONOM T163 EMPAX |
| Aircraft | A346/H-VGDW/C |
Departure
| Time | 2026-04-28 10:23 |
|---|---|
| Airport | Falcone–Borsellino Airport (LICJ) |
Arrival
| Time | N/A |
|---|---|
| Airport | Frankfurt Main Airport (EDDF) |
| Time | Latitude | Longitude | Altitude | Speed | Heading |
|---|---|---|---|---|---|
| 2026-04-28 10:04 | 38.18435 | 13.10718 | 64 ft | 0 kts | 110° |
| 2026-04-28 10:17 | 38.18438 | 13.10710 | 63 ft | 0 kts | 110° |
| 2026-04-28 10:17 | 38.18446 | 13.10680 | 66 ft | 0 kts | 110° |
| 2026-04-28 10:17 | 38.18456 | 13.10648 | 63 ft | 0 kts | 110° |
| 2026-04-28 10:17 | 38.18465 | 13.10617 | 63 ft | 0 kts | 110° |
| 2026-04-28 10:18 | 38.18470 | 13.10595 | 63 ft | 0 kts | 101° |
| 2026-04-28 10:19 | 38.18477 | 13.10639 | 63 ft | 15 kts | 64° |
| 2026-04-28 10:20 | 38.18502 | 13.10770 | 70 ft | 16 kts | 106° |
| 2026-04-28 10:20 | 38.18463 | 13.10910 | 67 ft | 18 kts | 122° |
| 2026-04-28 10:20 | 38.18450 | 13.11065 | 66 ft | 20 kts | 68° |
| 2026-04-28 10:20 | 38.18506 | 13.11238 | 71 ft | 23 kts | 67° |
| 2026-04-28 10:21 | 38.18573 | 13.11433 | 69 ft | 25 kts | 66° |
| 2026-04-28 10:21 | 38.18612 | 13.11647 | 72 ft | 26 kts | 95° |
| 2026-04-28 10:21 | 38.18607 | 13.11710 | 66 ft | 1 kts | 96° |
| 2026-04-28 10:21 | 38.18605 | 13.11723 | 66 ft | 3 kts | 97° |
| 2026-04-28 10:22 | 38.18595 | 13.11829 | 70 ft | 16 kts | 102° |
| 2026-04-28 10:22 | 38.18525 | 13.11879 | 85 ft | 12 kts | 214° |
| 2026-04-28 10:22 | 38.18506 | 13.11844 | 85 ft | 0 kts | 248° |
| 2026-04-28 10:22 | 38.18430 | 13.11610 | 74 ft | 74 kts | 247° |
| 2026-04-28 10:23 | 38.18106 | 13.10645 | 81 ft | 159 kts | 247° |
| 2026-04-28 10:23 | 38.17591 | 13.09136 | 326 ft | 208 kts | 247° |
| 2026-04-28 10:23 | 38.16982 | 13.07335 | 990 ft | 231 kts | 247° |
| 2026-04-28 10:23 | 38.16365 | 13.05483 | 2093 ft | 221 kts | 246° |
| 2026-04-28 10:24 | 38.15762 | 13.03622 | 2786 ft | 234 kts | 253° |
| 2026-04-28 10:24 | 38.15723 | 13.01493 | 3260 ft | 254 kts | 287° |
| 2026-04-28 10:24 | 38.16688 | 12.99563 | 3791 ft | 270 kts | 320° |
| 2026-04-28 10:24 | 38.18220 | 12.98205 | 4619 ft | 273 kts | 322° |
| 2026-04-28 10:25 | 38.19494 | 12.96393 | 5500 ft | 275 kts | 304° |
| 2026-04-28 10:25 | 38.20576 | 12.94384 | 6437 ft | 276 kts | 302° |
| 2026-04-28 10:25 | 38.21638 | 12.92336 | 7351 ft | 276 kts | 302° |
| 2026-04-28 10:25 | 38.22679 | 12.90266 | 8275 ft | 278 kts | 301° |
| 2026-04-28 10:26 | 38.23719 | 12.88170 | 9157 ft | 280 kts | 301° |
| 2026-04-28 10:26 | 38.24747 | 12.86086 | 10045 ft | 283 kts | 301° |
| 2026-04-28 10:26 | 38.25800 | 12.83944 | 10774 ft | 291 kts | 301° |
| 2026-04-28 10:26 | 38.26901 | 12.81695 | 11225 ft | 308 kts | 301° |
| 2026-04-28 10:27 | 38.28068 | 12.79309 | 11653 ft | 326 kts | 301° |
| 2026-04-28 10:27 | 38.29402 | 12.76855 | 12030 ft | 346 kts | 311° |
| 2026-04-28 10:27 | 38.31359 | 12.74922 | 12380 ft | 368 kts | 330° |
| 2026-04-28 10:27 | 38.33846 | 12.73850 | 12803 ft | 387 kts | 348° |
| 2026-04-28 10:28 | 38.36521 | 12.73244 | 13581 ft | 391 kts | 344° |
| 2026-04-28 10:28 | 38.39058 | 12.72092 | 14327 ft | 393 kts | 335° |
| 2026-04-28 10:28 | 38.41598 | 12.70740 | 15084 ft | 397 kts | 335° |
| 2026-04-28 10:29 | 38.46712 | 12.67891 | 16569 ft | 404 kts | 334° |
| 2026-04-28 10:29 | 38.49297 | 12.66424 | 17318 ft | 408 kts | 334° |
| 2026-04-28 10:29 | 38.51901 | 12.64937 | 18042 ft | 411 kts | 334° |
| 2026-04-28 10:29 | 38.54498 | 12.63450 | 18711 ft | 415 kts | 333° |
| 2026-04-28 10:30 | 38.57143 | 12.61933 | 19346 ft | 418 kts | 333° |
| 2026-04-28 10:30 | 38.59805 | 12.60405 | 20008 ft | 421 kts | 333° |
| 2026-04-28 10:30 | 38.62484 | 12.58864 | 20677 ft | 423 kts | 333° |
| 2026-04-28 10:30 | 38.65178 | 12.57313 | 21333 ft | 425 kts | 333° |
| 2026-04-28 10:31 | 38.67888 | 12.55750 | 21999 ft | 428 kts | 333° |
| 2026-04-28 10:31 | 38.70620 | 12.54171 | 22589 ft | 433 kts | 333° |
| 2026-04-28 10:31 | 38.73384 | 12.52579 | 23158 ft | 437 kts | 333° |
| 2026-04-28 10:31 | 38.76169 | 12.50972 | 23752 ft | 440 kts | 333° |
| 2026-04-28 10:32 | 38.78977 | 12.49350 | 24258 ft | 443 kts | 332° |
| 2026-04-28 10:32 | 38.81796 | 12.47718 | 24779 ft | 445 kts | 332° |
| 2026-04-28 10:32 | 38.84588 | 12.46100 | 25290 ft | 447 kts | 332° |
| 2026-04-28 10:32 | 38.87446 | 12.44446 | 25800 ft | 450 kts | 333° |
| 2026-04-28 10:33 | 38.90342 | 12.42855 | 26310 ft | 453 kts | 334° |
| 2026-04-28 10:33 | 38.93258 | 12.41290 | 26800 ft | 456 kts | 334° |
| 2026-04-28 10:33 | 38.96208 | 12.39715 | 27230 ft | 460 kts | 334° |
| 2026-04-28 10:33 | 38.99180 | 12.38128 | 27698 ft | 463 kts | 334° |
| 2026-04-28 10:34 | 39.02168 | 12.36527 | 28194 ft | 466 kts | 334° |
| 2026-04-28 10:34 | 39.05123 | 12.34939 | 28700 ft | 467 kts | 334° |
| 2026-04-28 10:34 | 39.08117 | 12.33327 | 29421 ft | 464 kts | 334° |
| 2026-04-28 10:34 | 39.11083 | 12.31728 | 30195 ft | 460 kts | 333° |
| 2026-04-28 10:35 | 39.14026 | 12.30137 | 30816 ft | 457 kts | 333° |
| 2026-04-28 10:35 | 39.16954 | 12.28548 | 31405 ft | 455 kts | 334° |
| 2026-04-28 10:35 | 39.19868 | 12.26963 | 31915 ft | 455 kts | 334° |
| 2026-04-28 10:35 | 39.22786 | 12.25379 | 32436 ft | 454 kts | 334° |
| 2026-04-28 10:36 | 39.25696 | 12.23798 | 32934 ft | 454 kts | 334° |
| 2026-04-28 10:36 | 39.28611 | 12.22212 | 33363 ft | 455 kts | 334° |
| 2026-04-28 10:36 | 39.31529 | 12.20624 | 33781 ft | 456 kts | 334° |
| 2026-04-28 10:36 | 39.34456 | 12.19028 | 34071 ft | 458 kts | 334° |
| 2026-04-28 10:37 | 39.37370 | 12.17439 | 34064 ft | 458 kts | 334° |
| 2026-04-28 10:37 | 39.43262 | 12.14217 | 34082 ft | 460 kts | 334° |
| 2026-04-28 10:38 | 39.49150 | 12.10998 | 34081 ft | 460 kts | 334° |
| 2026-04-28 10:38 | 39.55052 | 12.07766 | 34083 ft | 460 kts | 334° |
| 2026-04-28 10:39 | 39.60956 | 12.04524 | 34076 ft | 460 kts | 334° |
| 2026-04-28 10:39 | 39.66873 | 12.01262 | 34082 ft | 462 kts | 334° |
| 2026-04-28 10:40 | 39.72796 | 11.98001 | 34080 ft | 462 kts | 334° |
| 2026-04-28 10:40 | 39.78684 | 11.94752 | 34082 ft | 462 kts | 334° |
| 2026-04-28 10:41 | 39.84620 | 11.91469 | 34079 ft | 462 kts | 334° |
| 2026-04-28 10:41 | 39.90513 | 11.88197 | 34080 ft | 463 kts | 335° |
| 2026-04-28 10:42 | 39.96444 | 11.84907 | 34078 ft | 463 kts | 335° |
| 2026-04-28 10:42 | 40.02400 | 11.81695 | 34081 ft | 464 kts | 338° |
| 2026-04-28 10:43 | 40.08564 | 11.79157 | 34085 ft | 465 kts | 343° |
| 2026-04-28 10:43 | 40.14912 | 11.77390 | 34081 ft | 467 kts | 347° |
| 2026-04-28 10:44 | 40.21305 | 11.75849 | 34081 ft | 467 kts | 347° |
| 2026-04-28 10:44 | 40.27658 | 11.74321 | 34079 ft | 467 kts | 347° |
| 2026-04-28 10:45 | 40.34059 | 11.72767 | 34081 ft | 466 kts | 347° |
| 2026-04-28 10:45 | 40.40385 | 11.71230 | 34083 ft | 464 kts | 347° |
| 2026-04-28 10:46 | 40.46746 | 11.69683 | 34084 ft | 464 kts | 347° |
| 2026-04-28 10:46 | 40.53104 | 11.68132 | 34086 ft | 464 kts | 347° |
| 2026-04-28 10:47 | 40.59464 | 11.66574 | 34080 ft | 464 kts | 348° |
| 2026-04-28 10:47 | 40.65812 | 11.65019 | 34080 ft | 464 kts | 348° |
| 2026-04-28 10:48 | 40.72135 | 11.63467 | 34082 ft | 464 kts | 348° |
| 2026-04-28 10:48 | 40.78475 | 11.61904 | 34085 ft | 464 kts | 348° |
| 2026-04-28 10:49 | 40.84861 | 11.60329 | 34082 ft | 465 kts | 348° |
| 2026-04-28 10:49 | 40.91188 | 11.58768 | 34078 ft | 465 kts | 348° |
| 2026-04-28 10:50 | 40.97569 | 11.57189 | 34081 ft | 465 kts | 348° |
| 2026-04-28 10:50 | 41.03933 | 11.55610 | 34084 ft | 466 kts | 348° |
| 2026-04-28 10:51 | 41.10313 | 11.54025 | 34081 ft | 466 kts | 348° |
| 2026-04-28 10:51 | 41.16659 | 11.52445 | 34081 ft | 466 kts | 348° |
| 2026-04-28 10:52 | 41.23035 | 11.50854 | 34083 ft | 467 kts | 348° |
| 2026-04-28 10:52 | 41.29430 | 11.49255 | 34083 ft | 467 kts | 348° |
| 2026-04-28 10:53 | 41.35831 | 11.47651 | 34086 ft | 467 kts | 348° |
| 2026-04-28 10:53 | 41.42225 | 11.46047 | 34088 ft | 467 kts | 348° |
| 2026-04-28 10:54 | 41.48592 | 11.44446 | 34083 ft | 468 kts | 347° |
| 2026-04-28 10:54 | 41.53931 | 11.43099 | 34083 ft | 468 kts | 347° |
| 2026-04-28 10:55 | 41.61334 | 11.40918 | 34084 ft | 467 kts | 344° |
| 2026-04-28 10:55 | 41.66572 | 11.39111 | 34085 ft | 467 kts | 343° |
| 2026-04-28 10:56 | 41.72885 | 11.36914 | 34081 ft | 468 kts | 343° |
| 2026-04-28 10:56 | 41.79189 | 11.34721 | 34080 ft | 467 kts | 343° |
| 2026-04-28 10:57 | 41.85497 | 11.32528 | 34087 ft | 467 kts | 343° |
| 2026-04-28 10:57 | 41.91759 | 11.30350 | 34081 ft | 467 kts | 343° |
| 2026-04-28 10:58 | 41.98050 | 11.28155 | 34079 ft | 466 kts | 343° |
| 2026-04-28 10:58 | 42.04329 | 11.25957 | 34080 ft | 466 kts | 343° |
| 2026-04-28 10:59 | 42.10608 | 11.23760 | 34081 ft | 466 kts | 343° |
| 2026-04-28 10:59 | 42.16888 | 11.21553 | 34078 ft | 465 kts | 343° |
| 2026-04-28 11:00 | 42.23117 | 11.19361 | 34074 ft | 465 kts | 343° |
| 2026-04-28 11:00 | 42.29392 | 11.17149 | 34079 ft | 465 kts | 343° |
| 2026-04-28 11:01 | 42.35666 | 11.14933 | 34080 ft | 465 kts | 343° |
| 2026-04-28 11:01 | 42.41944 | 11.12710 | 34076 ft | 465 kts | 343° |
| 2026-04-28 11:02 | 42.48178 | 11.10500 | 34083 ft | 465 kts | 343° |
| 2026-04-28 11:02 | 42.54465 | 11.08266 | 34075 ft | 466 kts | 342° |
| 2026-04-28 11:03 | 42.60736 | 11.06031 | 34073 ft | 466 kts | 342° |
| 2026-04-28 11:03 | 42.66976 | 11.03803 | 34072 ft | 466 kts | 342° |
| 2026-04-28 11:04 | 42.73265 | 11.01558 | 34075 ft | 466 kts | 342° |
| 2026-04-28 11:04 | 42.79504 | 10.99329 | 34073 ft | 466 kts | 342° |
| 2026-04-28 11:05 | 42.85779 | 10.97081 | 34071 ft | 466 kts | 342° |
| 2026-04-28 11:05 | 42.92063 | 10.94827 | 34086 ft | 466 kts | 342° |
| 2026-04-28 11:06 | 42.98333 | 10.92573 | 34077 ft | 465 kts | 342° |
| 2026-04-28 11:06 | 43.04597 | 10.90313 | 34069 ft | 466 kts | 342° |
| 2026-04-28 11:07 | 43.10826 | 10.88062 | 34069 ft | 465 kts | 342° |
| 2026-04-28 11:07 | 43.17097 | 10.85794 | 34074 ft | 465 kts | 342° |
| 2026-04-28 11:08 | 43.23368 | 10.83518 | 34072 ft | 465 kts | 342° |
| 2026-04-28 11:08 | 43.29627 | 10.81242 | 34072 ft | 466 kts | 342° |
| 2026-04-28 11:09 | 43.35854 | 10.78975 | 34076 ft | 464 kts | 342° |
| 2026-04-28 11:09 | 43.42113 | 10.76689 | 34070 ft | 464 kts | 342° |
| 2026-04-28 11:10 | 43.48357 | 10.74403 | 34069 ft | 464 kts | 342° |
| 2026-04-28 11:10 | 43.54603 | 10.72114 | 34072 ft | 464 kts | 341° |
| 2026-04-28 11:11 | 43.60843 | 10.69821 | 34072 ft | 463 kts | 341° |
| 2026-04-28 11:11 | 43.67041 | 10.67538 | 34072 ft | 464 kts | 341° |
| 2026-04-28 11:12 | 43.73285 | 10.65234 | 34091 ft | 464 kts | 341° |
| 2026-04-28 11:12 | 43.79520 | 10.62930 | 34077 ft | 463 kts | 341° |
| 2026-04-28 11:13 | 43.85720 | 10.60630 | 34089 ft | 463 kts | 341° |
| 2026-04-28 11:13 | 43.91955 | 10.58313 | 34111 ft | 463 kts | 341° |
| 2026-04-28 11:14 | 43.98191 | 10.55993 | 34153 ft | 463 kts | 341° |
| 2026-04-28 11:14 | 44.04382 | 10.53682 | 34165 ft | 464 kts | 341° |
| 2026-04-28 11:15 | 44.10586 | 10.51244 | 34170 ft | 463 kts | 340° |
| 2026-04-28 11:15 | 44.16765 | 10.48666 | 34188 ft | 462 kts | 339° |
| 2026-04-28 11:16 | 44.22910 | 10.46099 | 34187 ft | 462 kts | 339° |
| 2026-04-28 11:16 | 44.29083 | 10.43526 | 34189 ft | 462 kts | 340° |
| 2026-04-28 11:17 | 44.35262 | 10.40951 | 34153 ft | 462 kts | 339° |
| 2026-04-28 11:17 | 44.41436 | 10.38374 | 34150 ft | 462 kts | 339° |
| 2026-04-28 11:18 | 44.47571 | 10.35807 | 34143 ft | 462 kts | 339° |
| 2026-04-28 11:18 | 44.53750 | 10.33217 | 34150 ft | 462 kts | 339° |
| 2026-04-28 11:19 | 44.59916 | 10.30627 | 34089 ft | 462 kts | 339° |
| 2026-04-28 11:19 | 44.66037 | 10.28049 | 34063 ft | 462 kts | 339° |
| 2026-04-28 11:20 | 44.72192 | 10.25450 | 34046 ft | 462 kts | 339° |
| 2026-04-28 11:20 | 44.78361 | 10.22843 | 34049 ft | 463 kts | 339° |
| 2026-04-28 11:21 | 44.84531 | 10.20226 | 34049 ft | 463 kts | 339° |
| 2026-04-28 11:21 | 44.90665 | 10.17618 | 34052 ft | 463 kts | 339° |
| 2026-04-28 11:22 | 44.96843 | 10.14989 | 34054 ft | 462 kts | 339° |
| 2026-04-28 11:22 | 45.03009 | 10.12356 | 34049 ft | 462 kts | 339° |
| 2026-04-28 11:23 | 45.09143 | 10.09730 | 34052 ft | 462 kts | 339° |
| 2026-04-28 11:23 | 45.15308 | 10.07070 | 34054 ft | 462 kts | 338° |
| 2026-04-28 11:24 | 45.21451 | 10.04361 | 34034 ft | 462 kts | 338° |
| 2026-04-28 11:24 | 45.27559 | 10.01657 | 34037 ft | 462 kts | 338° |
| 2026-04-28 11:25 | 45.33699 | 9.98935 | 34054 ft | 462 kts | 338° |
| 2026-04-28 11:25 | 45.39842 | 9.96211 | 34045 ft | 462 kts | 338° |
| 2026-04-28 11:26 | 45.45992 | 9.93474 | 34042 ft | 462 kts | 338° |
| 2026-04-28 11:26 | 45.52094 | 9.90753 | 34059 ft | 462 kts | 338° |
| 2026-04-28 11:27 | 45.58238 | 9.88011 | 34071 ft | 461 kts | 338° |
| 2026-04-28 11:27 | 45.64370 | 9.85263 | 34071 ft | 461 kts | 338° |
| 2026-04-28 11:28 | 45.70460 | 9.82529 | 34075 ft | 461 kts | 338° |
| 2026-04-28 11:28 | 45.76606 | 9.79766 | 34088 ft | 461 kts | 337° |
| 2026-04-28 11:29 | 45.82689 | 9.77022 | 34085 ft | 460 kts | 337° |
| 2026-04-28 11:29 | 45.88798 | 9.74257 | 34082 ft | 460 kts | 337° |
| 2026-04-28 11:30 | 45.94902 | 9.71490 | 34097 ft | 460 kts | 337° |
| 2026-04-28 11:30 | 46.04040 | 9.67339 | 34111 ft | 460 kts | 337° |
| 2026-04-28 11:31 | 46.10155 | 9.64553 | 34122 ft | 461 kts | 337° |
| 2026-04-28 11:31 | 46.16225 | 9.61779 | 34123 ft | 459 kts | 337° |
| 2026-04-28 11:32 | 46.22304 | 9.58998 | 34123 ft | 458 kts | 336° |
| 2026-04-28 11:32 | 46.28398 | 9.56199 | 34124 ft | 459 kts | 337° |
| 2026-04-28 11:33 | 46.34615 | 9.53801 | 34132 ft | 463 kts | 341° |
| 2026-04-28 11:33 | 46.40876 | 9.51693 | 34122 ft | 463 kts | 341° |
| 2026-04-28 11:34 | 46.47157 | 9.49586 | 34115 ft | 463 kts | 341° |
| 2026-04-28 11:34 | 46.53408 | 9.47475 | 34115 ft | 463 kts | 341° |
| 2026-04-28 11:35 | 46.59687 | 9.45346 | 34121 ft | 463 kts | 341° |
| 2026-04-28 11:35 | 46.65969 | 9.43208 | 34105 ft | 462 kts | 341° |
| 2026-04-28 11:36 | 46.72252 | 9.41063 | 34078 ft | 463 kts | 341° |
| 2026-04-28 11:36 | 46.78491 | 9.38939 | 34071 ft | 462 kts | 340° |
| 2026-04-28 11:37 | 46.84784 | 9.36782 | 34065 ft | 465 kts | 340° |
| 2026-04-28 11:37 | 46.91094 | 9.34610 | 34058 ft | 464 kts | 340° |
| 2026-04-28 11:38 | 46.97355 | 9.32450 | 34049 ft | 465 kts | 341° |
| 2026-04-28 11:38 | 47.03647 | 9.30211 | 34044 ft | 464 kts | 338° |
| 2026-04-28 11:39 | 47.09761 | 9.27270 | 34049 ft | 460 kts | 334° |
| 2026-04-28 11:39 | 47.15733 | 9.24035 | 34054 ft | 459 kts | 333° |
| 2026-04-28 11:40 | 47.21738 | 9.20762 | 34055 ft | 460 kts | 333° |
| 2026-04-28 11:40 | 47.27734 | 9.17498 | 34063 ft | 459 kts | 333° |
| 2026-04-28 11:41 | 47.33732 | 9.14226 | 34059 ft | 459 kts | 333° |
| 2026-04-28 11:41 | 47.38712 | 9.11503 | 34059 ft | 459 kts | 333° |
| 2026-04-28 11:42 | 47.45680 | 9.07689 | 34084 ft | 458 kts | 333° |
| 2026-04-28 11:42 | 47.50659 | 9.04957 | 34070 ft | 458 kts | 333° |
| 2026-04-28 11:43 | 47.56646 | 9.01662 | 34061 ft | 458 kts | 333° |
| 2026-04-28 11:43 | 47.62644 | 8.98353 | 34052 ft | 458 kts | 333° |
| 2026-04-28 11:44 | 47.68580 | 8.95076 | 34075 ft | 458 kts | 333° |
| 2026-04-28 11:44 | 47.74742 | 8.92434 | 34058 ft | 465 kts | 341° |
| 2026-04-28 11:45 | 47.81201 | 8.91038 | 34056 ft | 473 kts | 349° |
| 2026-04-28 11:45 | 47.87810 | 8.90998 | 34055 ft | 481 kts | 357° |
| 2026-04-28 11:46 | 47.94486 | 8.91930 | 34061 ft | 482 kts | 359° |
| 2026-04-28 11:46 | 48.01162 | 8.92969 | 34055 ft | 482 kts | 359° |
| 2026-04-28 11:47 | 48.07842 | 8.93992 | 34052 ft | 481 kts | 359° |
| 2026-04-28 11:47 | 48.14513 | 8.95007 | 34068 ft | 481 kts | 358° |
| 2026-04-28 11:48 | 48.21110 | 8.96006 | 33774 ft | 474 kts | 358° |
| 2026-04-28 11:48 | 48.24399 | 8.96504 | 33059 ft | 474 kts | 358° |
| 2026-04-28 11:48 | 48.27696 | 8.97003 | 32477 ft | 472 kts | 358° |
| 2026-04-28 11:49 | 48.30961 | 8.97498 | 31848 ft | 472 kts | 358° |
| 2026-04-28 11:49 | 48.34240 | 8.97994 | 31088 ft | 474 kts | 358° |
| 2026-04-28 11:49 | 48.37527 | 8.98490 | 30334 ft | 477 kts | 359° |
| 2026-04-28 11:49 | 48.40807 | 8.98987 | 29479 ft | 479 kts | 359° |
| 2026-04-28 11:50 | 48.44135 | 8.99489 | 28615 ft | 481 kts | 359° |
| 2026-04-28 11:50 | 48.47479 | 8.99998 | 27767 ft | 482 kts | 0° |
| 2026-04-28 11:50 | 48.50813 | 9.00507 | 27133 ft | 479 kts | 0° |
| 2026-04-28 11:50 | 48.54105 | 9.01016 | 26657 ft | 472 kts | 1° |
| 2026-04-28 11:51 | 48.57366 | 9.01519 | 26092 ft | 468 kts | 1° |
| 2026-04-28 11:51 | 48.60595 | 9.02014 | 25546 ft | 464 kts | 1° |
| 2026-04-28 11:51 | 48.63759 | 9.02585 | 25015 ft | 462 kts | 4° |
| 2026-04-28 11:51 | 48.66941 | 9.03303 | 24479 ft | 458 kts | 5° |
| 2026-04-28 11:52 | 48.70071 | 9.04051 | 23939 ft | 454 kts | 6° |
| 2026-04-28 11:52 | 48.73183 | 9.04805 | 23398 ft | 450 kts | 6° |
| 2026-04-28 11:52 | 48.76266 | 9.05550 | 22842 ft | 445 kts | 6° |
| 2026-04-28 11:52 | 48.79312 | 9.06286 | 22272 ft | 441 kts | 6° |
| 2026-04-28 11:53 | 48.82327 | 9.07012 | 21687 ft | 437 kts | 6° |
| 2026-04-28 11:53 | 48.85318 | 9.07730 | 21111 ft | 434 kts | 6° |
| 2026-04-28 11:53 | 48.88262 | 9.08394 | 20546 ft | 430 kts | 5° |
| 2026-04-28 11:53 | 48.91224 | 9.08881 | 19977 ft | 427 kts | 4° |